Here is the Quick Look data you requested

The Data originates at the National Weather Service, and is made available here by the UAlbany Department of Atmospheric and Environmental Sciences

Surface Observations

KCVG 191052Z 29010KT 10SM SCT029 OVC034 03/M01 A2991 RMK AO2 CIG 029 36R SLP126
 T00331006=
KCVG 191152Z 27008KT 10SM OVC035 03/M01 A2993 RMK AO2 SLP135 70073 T00331006
 10050 20033 53018=
KCVG 191252Z 26006KT 10SM BKN033 OVC036 03/00 A2995 RMK AO2 SLP145 T00330000=
KCVG 191352Z 26006KT 10SM SCT027 OVC035 03/00 A2997 RMK AO2 SLP152 T00330000=
KCVG 191452Z 27013G18KT 10SM BKN019 OVC022 03/00 A3000 RMK AO2 SLP161 T00330000
 52023=
KCVG 191552Z 28018G22KT 10SM BKN020 OVC035 03/M01 A3002 RMK AO2 SLP167
 T00331006=
KCVG 191652Z 30017KT 10SM BKN028 OVC030 02/M02 A3004 RMK AO2 PK WND 28026/1600
 SLP175 T00221022=
KCVG 191752Z 27014KT 10SM BKN026 OVC033 03/M02 A3002 RMK AO2 SLP169 T00281017
 10033 20022 50008=
KCVG 191852Z 27014G19KT 10SM BKN028 OVC030 03/M03 A3002 RMK AO2 SLP169
 T00281028=
KCVG 191952Z 28015KT 10SM OVC033 03/M02 A3003 RMK AO2 SLP173 BINOVC T00281022=
KCVG 192052Z 29013G21KT 10SM BKN033 03/M03 A3005 RMK AO2 PK WND 28026/2031
 SLP178 T00331028 53008=
KCVG 192152Z 28015KT 10SM SCT035 02/M04 A3006 RMK AO2 SLP183 T00221039=
KCVG 192252Z 28005KT 10SM FEW035 FEW250 00/M04 A3008 RMK AO2 SLP190 T00001039=
KCVG 192352Z 29006KT 10SM FEW250 00/M04 A3011 RMK AO2 PRESRR SLP202 T00001039
 10039 21006 53022=
KCVG 200052Z 28005KT 10SM CLR M01/M04 A3013 RMK AO2 SLP208 T10111039=
KCVG 200152Z 26004KT 10SM CLR M02/M04 A3013 RMK AO2 SLP210 T10221039=
KCVG 200252Z 25005KT 10SM CLR M02/M04 A3016 RMK AO2 SLP216 T10171044 53014=
KCVG 200352Z 25004KT 10SM CLR M02/M04 A3016 RMK AO2 SLP218 T10171044=
KCVG 200452Z 22003KT 10SM CLR M02/M04 A3016 RMK AO2 SLP219 T10171044 400501022=
KCVG 200552Z 22003KT 10SM CLR M02/M05 A3017 RMK AO2 SLP222 T10221050 10000
 21028 53004=
KCVG 200652Z 26004KT 10SM FEW250 M02/M05 A3017 RMK AO2 SLP224 T10221050=
KCVG 200752Z 20004KT 10SM FEW250 M04/M05 A3017 RMK AO2 SLP223 T10391050=
KCVG 200852Z 21005KT 10SM FEW250 M04/M05 A3017 RMK AO2 SLP222 T10391050 51000=
KCVG 200952Z 19003KT 10SM FEW250 M04/M05 A3018 RMK AO2 SLP227 T10391050=
KCVG 201052Z 21003KT 10SM FEW250 M04/M06 A3019 RMK AO2 SLP231 T10391056=
KCVG 201152Z 18005KT 10SM FEW200 M05/M06 A3019 RMK AO2 SLP233 T10501056 11022
 21050 51008=
KCVG 201252Z 19005KT 10SM SCT250 M04/M05 A3022 RMK AO2 SLP241 T10391050=
KCVG 201352Z 19006KT 10SM BKN250 M02/M03 A3022 RMK AO2 SLP241 T10171033=
KCVG 201452Z 19007KT 10SM BKN300 01/M03 A3022 RMK AO2 SLP240 T00061028 50008=
KCVG 201552Z 20011KT 10SM BKN300 03/M04 A3022 RMK AO2 SLP238 T00281039=
KCVG 201652Z 19008KT 10SM BKN300 05/M03 A3019 RMK AO2 SLP229 T00501028=
KCVG 201752Z 20010KT 10SM SCT300 07/M04 A3015 RMK AO2 SLP213 T00671039 10067
 21056 58025=
KCVG 201852Z 20015G22KT 10SM BKN300 08/M04 A3011 RMK AO2 SLP201 T00781039=
KCVG 201952Z 18014KT 10SM BKN300 08/M03 A3008 RMK AO2 SLP191 T00831028=
KCVG 202052Z 18009G19KT 10SM BKN250 08/M03 A3007 RMK AO2 SLP187 T00831028 56025=
KCVG 202152Z 19008KT 10SM BKN250 07/M03 A3007 RMK AO2 SLP187 T00721033=
KCVG 202252Z 16006KT 10SM BKN250 04/M03 A3006 RMK AO2 SLP186 T00391028=